createdAt,value
2018-06-12T00:01:33.414Z,100392.33
2018-06-12T00:04:00.278Z,100381.04
2018-06-12T00:06:26.974Z,100377.84
2018-06-12T00:08:53.643Z,100376.52
2018-06-12T00:11:20.272Z,100381.30
2018-06-12T00:13:46.900Z,100378.31
2018-06-12T00:16:13.563Z,100375.98
2018-06-12T00:18:40.189Z,100376.81
2018-06-12T00:21:07.812Z,100378.18
2018-06-12T00:23:34.487Z,100383.95
2018-06-12T00:26:01.160Z,100380.84
2018-06-12T00:28:27.823Z,100381.30
2018-06-12T00:30:54.484Z,100386.45
2018-06-12T00:33:21.105Z,100390.89
2018-06-12T00:35:47.729Z,100394.08
2018-06-12T00:38:14.352Z,100394.91
2018-06-12T00:40:40.977Z,100397.08
2018-06-12T00:43:07.605Z,100394.91
2018-06-12T00:45:34.268Z,100397.20
2018-06-12T00:48:00.892Z,100400.85
2018-06-12T00:50:27.524Z,100401.88
2018-06-12T00:52:54.195Z,100396.57
2018-06-12T00:55:20.860Z,100401.72
2018-06-12T00:57:47.476Z,100405.67
2018-06-12T01:00:14.144Z,100398.36
2018-06-12T01:02:40.770Z,100396.80
2018-06-12T01:05:07.452Z,100403.27
2018-06-12T01:07:34.064Z,100398.30
2018-06-12T01:10:01.616Z,100403.11
2018-06-12T01:12:28.231Z,100400.95
2018-06-12T01:14:54.896Z,100403.73
2018-06-12T01:17:21.504Z,100396.97
2018-06-12T01:19:49.144Z,100399.45
2018-06-12T01:22:16.532Z,100398.09
2018-06-12T01:24:43.149Z,100398.30
2018-06-12T01:27:09.769Z,100395.77
2018-06-12T01:29:36.395Z,100390.33
2018-06-12T01:32:04.449Z,100384.69
2018-06-12T01:34:31.060Z,100398.30
2018-06-12T01:36:58.641Z,100401.28
2018-06-12T01:39:25.263Z,100406.22
2018-06-12T01:41:52.780Z,100404.23
2018-06-12T01:44:20.211Z,100405.60
2018-06-12T01:46:46.819Z,100406.22
2018-06-12T01:49:13.432Z,100408.22
2018-06-12T01:51:40.097Z,100411.87
2018-06-12T01:54:06.724Z,100415.02
2018-06-12T01:56:33.343Z,100423.73
2018-06-12T01:58:59.961Z,100424.20
2018-06-12T02:01:26.571Z,100426.02
2018-06-12T02:03:53.194Z,100427.55
2018-06-12T02:06:19.975Z,100434.81
2018-06-12T02:08:46.584Z,100432.81
2018-06-12T02:11:13.206Z,100434.06
2018-06-12T02:13:39.824Z,100442.16
2018-06-12T02:16:07.320Z,100442.98
2018-06-12T02:18:33.976Z,100437.89
2018-06-12T02:21:00.594Z,100436.02
2018-06-12T02:23:27.248Z,100443.94
2018-06-12T02:25:54.894Z,100443.39
2018-06-12T02:28:22.458Z,100445.27
2018-06-12T02:30:49.696Z,100433.41
2018-06-12T02:33:17.264Z,100433.61
2018-06-12T02:35:44.867Z,100433.77
2018-06-12T02:38:11.488Z,100436.09
2018-06-12T02:40:38.141Z,100437.92
2018-06-12T02:43:05.684Z,100434.64
2018-06-12T02:45:33.367Z,100434.77
2018-06-12T02:48:00.928Z,100433.06
2018-06-12T02:50:27.605Z,100435.43
2018-06-12T02:52:54.214Z,100440.20
2018-06-12T02:55:20.879Z,100435.55
2018-06-12T02:57:47.548Z,100440.53
2018-06-12T03:00:14.178Z,100438.38
2018-06-12T03:02:40.831Z,100437.59
2018-06-12T03:05:07.474Z,100435.43
2018-06-12T03:07:34.134Z,100434.06
2018-06-12T03:10:00.756Z,100433.39
2018-06-12T03:12:28.340Z,100438.83
2018-06-12T03:14:55.947Z,100434.67
2018-06-12T03:17:23.612Z,100438.83
2018-06-12T03:19:51.217Z,100436.93
2018-06-12T03:22:17.823Z,100438.20
2018-06-12T03:24:44.423Z,100438.98
2018-06-12T03:27:11.076Z,100441.52
2018-06-12T03:29:37.752Z,100437.25
2018-06-12T03:32:04.396Z,100434.28
2018-06-12T03:34:31.015Z,100437.88
2018-06-12T03:36:57.681Z,100431.61
2018-06-12T03:39:25.131Z,100439.80
2018-06-12T03:41:51.748Z,100435.43
2018-06-12T03:44:18.401Z,100443.61
2018-06-12T03:46:45.057Z,100437.92
2018-06-12T03:49:11.685Z,100437.75
2018-06-12T03:51:38.352Z,100442.94
2018-06-12T03:54:04.976Z,100440.33
2018-06-12T03:56:32.440Z,100441.61
2018-06-12T03:58:59.856Z,100443.66
2018-06-12T04:01:27.367Z,100447.72
2018-06-12T04:03:53.984Z,100445.89
2018-06-12T04:06:20.739Z,100445.89
2018-06-12T04:08:47.396Z,100454.02
2018-06-12T04:11:14.046Z,100454.39
2018-06-12T04:13:40.676Z,100447.55
2018-06-12T04:16:07.305Z,100456.39
2018-06-12T04:18:33.940Z,100447.47
2018-06-12T04:21:00.566Z,100447.80
2018-06-12T04:23:27.180Z,100454.66
2018-06-12T04:25:53.896Z,100451.73
2018-06-12T04:28:20.520Z,100458.88
2018-06-12T04:30:47.149Z,100465.35
2018-06-12T04:33:13.763Z,100460.91
2018-06-12T04:35:40.424Z,100463.48
2018-06-12T04:38:07.048Z,100466.95
2018-06-12T04:40:33.745Z,100467.83
2018-06-12T04:43:00.407Z,100476.42
2018-06-12T04:45:27.024Z,100476.92
2018-06-12T04:47:53.640Z,100479.50
2018-06-12T04:50:20.258Z,100474.59
2018-06-12T04:52:46.926Z,100477.41
2018-06-12T04:55:14.359Z,100480.23
2018-06-12T04:57:41.924Z,100488.03
2018-06-12T05:00:08.541Z,100488.95
2018-06-12T05:02:36.017Z,100491.41
2018-06-12T05:05:02.627Z,100495.71
2018-06-12T05:07:29.253Z,100490.58
2018-06-12T05:09:55.864Z,100500.86
2018-06-12T05:12:22.495Z,100496.33
2018-06-12T05:14:49.120Z,100498.66
2018-06-12T05:17:15.740Z,100494.13
2018-06-12T05:19:42.423Z,100498.61
2018-06-12T05:22:09.941Z,100491.36
2018-06-12T05:24:36.555Z,100498.00
2018-06-12T05:27:03.169Z,100490.19
2018-06-12T05:29:29.800Z,100497.61
2018-06-12T05:31:57.316Z,100502.25
2018-06-12T05:34:24.939Z,100501.80
2018-06-12T05:36:51.596Z,100505.97
2018-06-12T05:39:19.008Z,100509.88
2018-06-12T05:41:45.633Z,100506.19
2018-06-12T05:44:13.272Z,100513.31
2018-06-12T05:46:40.009Z,100515.19
2018-06-12T05:49:07.523Z,100518.52
2018-06-12T05:51:34.181Z,100528.06
2018-06-12T05:54:01.828Z,100530.30
2018-06-12T05:56:28.452Z,100534.99
2018-06-12T05:58:55.110Z,100536.72
2018-06-12T06:01:22.646Z,100528.47
2018-06-12T06:03:50.111Z,100535.78
2018-06-12T06:06:17.544Z,100530.47
2018-06-12T06:08:44.201Z,100532.83
2018-06-12T06:11:11.752Z,100537.94
2018-06-12T06:13:38.380Z,100541.63
2018-06-12T06:16:04.992Z,100542.02
2018-06-12T06:18:32.283Z,100547.56
2018-06-12T06:20:58.903Z,100546.23
2018-06-12T06:23:26.445Z,100548.45
2018-06-12T06:25:54.012Z,100554.02
2018-06-12T06:28:21.628Z,100557.90
2018-06-12T06:30:48.396Z,100557.06
2018-06-12T06:33:16.059Z,100564.88
2018-06-12T06:35:42.724Z,100559.72
2018-06-12T06:38:09.344Z,100558.55
2018-06-12T06:40:36.998Z,100558.77
2018-06-12T06:43:04.557Z,100559.65
2018-06-12T06:45:31.224Z,100567.09
2018-06-12T06:47:58.828Z,100564.23
2018-06-12T06:50:25.487Z,100563.94
2018-06-12T06:52:52.139Z,100568.98
2018-06-12T06:55:18.797Z,100573.13
2018-06-12T06:57:46.336Z,100572.95
2018-06-12T07:00:13.012Z,100575.99
2018-06-12T07:02:40.580Z,100575.16
2018-06-12T07:05:07.247Z,100574.00
2018-06-12T07:07:33.908Z,100576.98
2018-06-12T07:10:01.548Z,100572.46
2018-06-12T07:12:28.173Z,100564.70
2018-06-12T07:14:55.815Z,100570.55
2018-06-12T07:17:23.399Z,100568.36
2018-06-12T07:19:51.036Z,100565.70
2018-06-12T07:22:18.669Z,100566.02
2018-06-12T07:24:46.224Z,100562.53
2018-06-12T07:27:12.879Z,100568.64
2018-06-12T07:29:39.496Z,100566.61
2018-06-12T07:32:06.156Z,100564.45
2018-06-12T07:34:33.809Z,100559.41
2018-06-12T07:37:01.284Z,100570.71
2018-06-12T07:39:27.895Z,100569.42
2018-06-12T07:41:55.428Z,100565.72
2018-06-12T07:44:22.056Z,100572.20
2018-06-12T07:46:48.718Z,100574.56
2018-06-12T07:49:15.336Z,100571.05
2018-06-12T07:51:42.933Z,100574.52
2018-06-12T07:54:09.584Z,100577.67
2018-06-12T07:56:41.937Z,100573.15
2018-06-12T07:59:08.720Z,100573.33
2018-06-12T08:01:35.335Z,100565.38
2018-06-12T08:04:01.996Z,100574.20
2018-06-12T08:06:28.639Z,100581.00
2018-06-12T08:08:55.304Z,100570.38
2018-06-12T08:11:22.871Z,100571.33
2018-06-12T08:13:49.500Z,100577.13
2018-06-12T08:16:16.119Z,100574.16
2018-06-12T08:18:42.733Z,100572.11
2018-06-12T08:21:10.397Z,100566.91
2018-06-12T08:23:37.851Z,100566.64
2018-06-12T08:26:04.472Z,100563.69
2018-06-12T08:28:31.147Z,100569.83
2018-06-12T08:30:57.836Z,100574.59
2018-06-12T08:33:24.522Z,100581.16
2018-06-12T08:35:51.196Z,100578.59
2018-06-12T08:38:17.827Z,100587.77
2018-06-12T08:40:45.436Z,100594.97
2018-06-12T08:43:12.052Z,100585.38
2018-06-12T08:45:38.673Z,100587.45
2018-06-12T08:48:06.464Z,100594.15
2018-06-12T08:50:34.161Z,100595.48
2018-06-12T08:53:00.811Z,100594.52
2018-06-12T08:55:27.434Z,100590.28
2018-06-12T08:57:54.051Z,100587.62
2018-06-12T09:00:20.675Z,100589.87
2018-06-12T09:02:47.311Z,100589.20
2018-06-12T09:05:13.996Z,100590.48
2018-06-12T09:07:41.427Z,100578.24
2018-06-12T09:10:08.869Z,100579.68
2018-06-12T09:12:35.538Z,100577.98
2018-06-12T09:15:02.222Z,100587.83
2018-06-12T09:17:28.840Z,100577.59
2018-06-12T09:19:56.490Z,100582.31
2018-06-12T09:22:24.121Z,100578.06
2018-06-12T09:24:50.736Z,100572.39
2018-06-12T09:27:17.355Z,100577.25
2018-06-12T09:29:44.907Z,100580.72
2018-06-12T09:32:11.583Z,100586.87
2018-06-12T09:34:39.180Z,100584.47
2018-06-12T09:37:05.800Z,100582.90
2018-06-12T09:39:33.411Z,100584.52
2018-06-12T09:42:00.044Z,100579.23
2018-06-12T09:44:26.784Z,100584.97
2018-06-12T09:46:53.483Z,100566.80
2018-06-12T09:49:20.293Z,100574.81
2018-06-12T09:51:46.964Z,100573.27
2018-06-12T09:54:14.415Z,100576.83
2018-06-12T09:56:41.881Z,100580.48
2018-06-12T09:59:08.503Z,100573.17
2018-06-12T10:01:35.956Z,100571.27
2018-06-12T10:04:02.605Z,100571.94
2018-06-12T10:06:29.268Z,100579.81
2018-06-12T10:08:56.604Z,100583.55
2018-06-12T10:11:23.263Z,100586.37
2018-06-12T10:13:49.927Z,100586.13
2018-06-12T10:16:16.595Z,100588.00
2018-06-12T10:18:43.217Z,100583.22
2018-06-12T10:21:09.905Z,100584.67
2018-06-12T10:23:36.560Z,100582.31
2018-06-12T10:26:03.176Z,100574.99
2018-06-12T10:28:29.868Z,100584.02
2018-06-12T10:30:56.600Z,100582.80
2018-06-12T10:33:23.252Z,100585.02
2018-06-12T10:35:49.879Z,100588.32
2018-06-12T10:38:16.544Z,100594.42
2018-06-12T10:40:43.156Z,100592.59
2018-06-12T10:43:10.098Z,100591.63
2018-06-12T10:45:37.448Z,100591.19
2018-06-12T10:48:05.025Z,100586.78
2018-06-12T10:50:32.649Z,100588.87
2018-06-12T10:52:59.311Z,100590.02
2018-06-12T10:55:26.945Z,100591.63
2018-06-12T10:57:53.659Z,100582.56
2018-06-12T11:00:20.283Z,100578.14
2018-06-12T11:02:46.967Z,100582.72
2018-06-12T11:05:14.551Z,100583.30
2018-06-12T11:07:41.171Z,100577.41
2018-06-12T11:10:08.758Z,100585.04
2018-06-12T11:12:35.413Z,100576.99
2018-06-12T11:15:02.726Z,100581.47
2018-06-12T11:17:30.157Z,100574.50
2018-06-12T11:19:56.785Z,100572.39
2018-06-12T11:22:24.444Z,100565.08
2018-06-12T11:24:51.059Z,100574.91
2018-06-12T11:27:18.664Z,100567.95
2018-06-12T11:29:45.296Z,100569.34
2018-06-12T11:32:12.921Z,100574.91
2018-06-12T11:34:39.544Z,100566.29
2018-06-12T11:37:06.197Z,100562.31
2018-06-12T11:39:32.820Z,100560.50
2018-06-12T11:42:00.436Z,100561.06
2018-06-12T11:44:28.033Z,100564.62
2018-06-12T11:46:54.699Z,100562.13
2018-06-12T11:49:21.324Z,100560.42
2018-06-12T11:51:48.104Z,100560.42
2018-06-12T11:54:14.739Z,100556.32
2018-06-12T11:56:41.352Z,100557.98
2018-06-12T11:59:07.968Z,100558.27
2018-06-12T12:01:35.360Z,100551.63
2018-06-12T12:04:01.985Z,100559.31
2018-06-12T12:06:28.596Z,100560.42
2018-06-12T12:08:56.297Z,100552.67
2018-06-12T12:11:22.917Z,100546.87
2018-06-12T12:13:49.528Z,100546.48
2018-06-12T12:16:16.143Z,100543.17
2018-06-12T12:18:42.753Z,100543.04
2018-06-12T12:21:09.371Z,100547.60
2018-06-12T12:23:35.992Z,100548.92
2018-06-12T12:26:03.573Z,100540.05
2018-06-12T12:28:31.169Z,100549.80
2018-06-12T12:30:58.810Z,100543.72
2018-06-12T12:33:26.427Z,100541.06
2018-06-12T12:35:54.009Z,100536.06
2018-06-12T12:38:20.709Z,100544.05
2018-06-12T12:40:47.371Z,100540.12
2018-06-12T12:43:14.830Z,100544.61
2018-06-12T12:45:41.440Z,100545.98
2018-06-12T12:48:08.664Z,100537.34
2018-06-12T12:50:35.269Z,100545.31
2018-06-12T12:53:02.910Z,100541.50
2018-06-12T12:55:29.509Z,100548.30
2018-06-12T12:57:56.961Z,100545.20
2018-06-12T13:00:23.608Z,100541.06
2018-06-12T13:02:51.268Z,100537.97
2018-06-12T13:05:17.880Z,100537.97
2018-06-12T13:07:45.486Z,100542.21
2018-06-12T13:10:12.098Z,100546.48
2018-06-12T13:12:39.681Z,100544.48
2018-06-12T13:15:07.282Z,100539.84
2018-06-12T13:17:33.945Z,100538.26
2018-06-12T13:20:01.484Z,100537.30
2018-06-12T13:22:28.100Z,100539.41
2018-06-12T13:24:55.620Z,100541.50
2018-06-12T13:27:22.240Z,100538.52
2018-06-12T13:29:49.656Z,100541.45
2018-06-12T13:32:16.308Z,100547.14
2018-06-12T13:34:43.918Z,100541.33
2018-06-12T13:37:10.527Z,100543.94
2018-06-12T13:39:38.052Z,100536.36
2018-06-12T13:42:04.728Z,100537.19
2018-06-12T13:44:31.344Z,100534.28
2018-06-12T13:46:58.804Z,100534.77
2018-06-12T13:49:26.316Z,100529.63
2018-06-12T13:51:53.873Z,100529.51
2018-06-12T13:54:21.433Z,100526.85
2018-06-12T13:56:48.052Z,100527.69
2018-06-12T13:59:15.656Z,100525.73
2018-06-12T14:01:42.266Z,100534.86
2018-06-12T14:04:09.826Z,100527.73
2018-06-12T14:06:36.441Z,100528.93
2018-06-12T14:09:05.284Z,100524.11
2018-06-12T14:11:31.962Z,100527.39
2018-06-12T14:13:59.354Z,100529.38
2018-06-12T14:16:25.968Z,100526.56
2018-06-12T14:18:53.513Z,100524.07
2018-06-12T14:21:20.972Z,100523.91
2018-06-12T14:23:48.576Z,100523.03
2018-06-12T14:26:16.203Z,100515.94
2018-06-12T14:28:43.408Z,100520.38
2018-06-12T14:31:11.040Z,100518.59
2018-06-12T14:33:38.589Z,100515.73
2018-06-12T14:36:05.251Z,100506.22
2018-06-12T14:38:32.279Z,100503.11
2018-06-12T14:40:59.897Z,100503.45
2018-06-12T14:43:27.518Z,100502.12
2018-06-12T14:45:55.152Z,100501.98
2018-06-12T14:48:21.769Z,100504.15
2018-06-12T14:50:48.433Z,100503.70
2018-06-12T14:53:15.980Z,100493.37
2018-06-12T14:55:42.641Z,100495.23
2018-06-12T14:58:09.254Z,100499.22
2018-06-12T15:00:35.872Z,100492.66
2018-06-12T15:03:03.392Z,100490.55
2018-06-12T15:05:30.012Z,100482.58
2018-06-12T15:07:57.500Z,100478.47
2018-06-12T15:10:24.120Z,100477.63
2018-06-12T15:12:50.745Z,100484.98
2018-06-12T15:15:18.152Z,100470.70
2018-06-12T15:17:44.766Z,100471.88
2018-06-12T15:20:11.379Z,100477.77
2018-06-12T15:22:38.004Z,100475.90
2018-06-12T15:25:04.628Z,100472.62
2018-06-12T15:27:32.127Z,100471.86
2018-06-12T15:29:58.751Z,100468.00
2018-06-12T15:32:25.376Z,100472.19
2018-06-12T15:34:51.992Z,100475.56
2018-06-12T15:37:18.620Z,100478.05
2018-06-12T15:39:45.272Z,100474.15
2018-06-12T15:42:11.893Z,100480.38
2018-06-12T15:44:38.549Z,100468.09
2018-06-12T15:47:05.173Z,100464.89
2018-06-12T15:49:31.797Z,100465.06
2018-06-12T15:51:58.412Z,100462.70
2018-06-12T15:54:25.036Z,100465.89
2018-06-12T15:56:51.656Z,100472.37
2018-06-12T15:59:18.287Z,100465.69
2018-06-12T16:01:45.817Z,100466.01
2018-06-12T16:04:13.467Z,100468.33
2018-06-12T16:06:41.092Z,100465.89
2018-06-12T16:09:08.691Z,100468.45
2018-06-12T16:11:36.292Z,100466.84
2018-06-12T16:14:03.812Z,100460.36
2018-06-12T16:16:31.421Z,100459.95
2018-06-12T16:18:58.075Z,100462.52
2018-06-12T16:21:25.474Z,100456.27
2018-06-12T16:23:52.118Z,100450.45
2018-06-12T16:26:19.698Z,100452.73
2018-06-12T16:28:46.532Z,100451.94
2018-06-12T16:31:14.040Z,100451.06
2018-06-12T16:33:40.776Z,100458.71
2018-06-12T16:36:08.370Z,100452.86
2018-06-12T16:38:35.012Z,100450.45
2018-06-12T16:41:02.591Z,100451.28
2018-06-12T16:43:29.245Z,100460.73
2018-06-12T16:45:55.856Z,100456.52
2018-06-12T16:48:22.547Z,100451.86
2018-06-12T16:50:50.104Z,100444.85
2018-06-12T16:53:16.764Z,100443.48
2018-06-12T16:55:44.397Z,100445.89
2018-06-12T16:58:11.011Z,100445.55
2018-06-12T17:03:24.384Z,100451.09
2018-06-12T17:05:51.008Z,100444.02
2018-06-12T17:08:17.677Z,100448.75
2018-06-12T17:10:44.336Z,100451.45
2018-06-12T17:13:10.963Z,100452.77
2018-06-12T17:15:37.633Z,100455.22
2018-06-12T17:18:04.276Z,100445.30
2018-06-12T17:20:31.851Z,100448.62
2018-06-12T17:22:58.510Z,100447.09
2018-06-12T17:25:25.173Z,100447.92
2018-06-12T17:27:51.792Z,100457.55
2018-06-12T17:30:18.445Z,100456.89
2018-06-12T17:32:45.148Z,100454.39
2018-06-12T17:35:11.817Z,100450.91
2018-06-12T17:37:38.432Z,100459.20
2018-06-12T17:40:05.947Z,100452.61
2018-06-12T17:42:32.568Z,100447.92
2018-06-12T17:44:59.188Z,100453.11
2018-06-12T17:47:25.840Z,100454.10
2018-06-12T17:49:52.449Z,100448.59
2018-06-12T17:52:19.843Z,100450.13
2018-06-12T17:54:46.478Z,100457.25
2018-06-12T17:57:14.094Z,100458.71
2018-06-12T17:59:42.272Z,100462.45
2018-06-12T18:02:10.050Z,100468.84
2018-06-12T18:04:38.055Z,100475.68
2018-06-12T18:07:05.021Z,100469.20
2018-06-12T18:09:32.868Z,100462.56
2018-06-12T18:12:01.091Z,100454.28
2018-06-12T18:14:28.488Z,100454.61
2018-06-12T18:16:56.613Z,100462.20
2018-06-12T18:19:23.863Z,100460.37
2018-06-12T18:21:50.499Z,100463.39
2018-06-12T18:24:17.793Z,100466.88
2018-06-12T18:26:45.383Z,100465.06
2018-06-12T18:29:12.497Z,100464.56
2018-06-12T18:34:34.753Z,100466.72
2018-06-12T18:37:01.473Z,100467.05
2018-06-12T18:39:28.112Z,100466.72
2018-06-12T18:41:55.684Z,100469.38
2018-06-12T18:44:22.302Z,100469.88
2018-06-12T18:46:48.926Z,100464.23
2018-06-12T18:49:15.711Z,100459.59
2018-06-12T18:51:42.554Z,100462.41
2018-06-12T18:54:09.475Z,100468.21
2018-06-12T18:56:37.399Z,100470.03
2018-06-12T19:04:54.913Z,100477.22
2018-06-12T19:07:22.251Z,100479.31
2018-06-12T19:09:49.226Z,100477.60
2018-06-12T19:12:16.883Z,100477.88
2018-06-12T19:14:43.719Z,100483.97
2018-06-12T19:17:10.468Z,100487.17
2018-06-12T19:19:37.225Z,100480.55
2018-06-12T19:22:03.954Z,100489.77
2018-06-12T19:28:01.528Z,100488.61
2018-06-12T19:30:28.261Z,100492.05
2018-06-12T19:32:54.937Z,100498.98
2018-06-12T19:35:21.903Z,100506.30
2018-06-12T19:37:48.680Z,100504.09
2018-06-12T19:40:15.411Z,100507.86
2018-06-12T19:42:42.053Z,100503.25
2018-06-12T19:45:12.518Z,100508.99
2018-06-12T19:47:39.337Z,100515.96
2018-06-12T19:50:06.105Z,100524.10
2018-06-12T19:52:33.228Z,100517.41
2018-06-12T19:54:59.878Z,100514.30
2018-06-12T19:57:26.552Z,100517.69
2018-06-12T19:59:53.212Z,100513.06
2018-06-12T20:02:19.873Z,100514.00
2018-06-12T20:04:46.497Z,100509.34
2018-06-12T20:07:13.160Z,100511.89
2018-06-12T20:09:39.832Z,100515.16
2018-06-12T20:12:06.492Z,100523.16
2018-06-12T20:14:33.140Z,100524.30
2018-06-12T20:16:59.772Z,100525.94
2018-06-12T20:19:26.436Z,100527.32
2018-06-12T20:21:53.052Z,100542.34
2018-06-12T20:24:20.201Z,100543.79
2018-06-12T20:26:46.880Z,100541.87
2018-06-12T20:29:13.492Z,100547.77
2018-06-12T20:31:40.106Z,100545.41
2018-06-12T20:34:06.723Z,100555.59
2018-06-12T20:36:33.348Z,100559.30
2018-06-12T20:38:59.977Z,100568.16
2018-06-12T20:41:26.599Z,100567.23
2018-06-12T20:43:53.245Z,100569.45
2018-06-12T20:46:19.944Z,100574.35
2018-06-12T20:48:46.559Z,100575.38
2018-06-12T20:51:13.178Z,100574.82
2018-06-12T20:53:39.784Z,100580.80
2018-06-12T20:56:06.429Z,100577.34
2018-06-12T20:58:33.122Z,100570.62
2018-06-12T21:00:59.737Z,100567.14
2018-06-12T21:03:26.388Z,100571.52
2018-06-12T21:05:53.052Z,100574.88
2018-06-12T21:08:19.817Z,100576.02
2018-06-12T21:10:46.545Z,100574.08
2018-06-12T21:13:13.364Z,100567.27
2018-06-12T21:15:40.112Z,100563.99
2018-06-12T21:18:11.085Z,100568.87
2018-06-12T21:20:37.804Z,100562.91
2018-06-12T21:23:04.583Z,100558.25
2018-06-12T21:25:31.248Z,100552.73
2018-06-12T21:28:03.037Z,100554.43
2018-06-12T21:30:29.725Z,100558.66
2018-06-12T21:32:56.340Z,100555.46
2018-06-12T21:35:23.040Z,100560.70
2018-06-12T21:37:49.695Z,100561.27
2018-06-12T21:40:16.313Z,100565.97
2018-06-12T21:42:42.941Z,100564.82
2018-06-12T21:45:09.560Z,100567.97
2018-06-12T21:47:36.200Z,100569.84
2018-06-12T21:50:02.814Z,100567.84
2018-06-12T21:52:29.521Z,100567.14
2018-06-12T21:54:57.084Z,100563.65
2018-06-12T21:57:23.716Z,100560.84
2018-06-12T21:59:50.476Z,100561.98
2018-06-12T22:02:17.158Z,100566.95
2018-06-12T22:04:43.843Z,100576.14
2018-06-12T22:07:10.517Z,100565.75
2018-06-12T22:09:37.177Z,100572.94
2018-06-12T22:12:03.799Z,100571.77
2018-06-12T22:14:30.494Z,100569.40
2018-06-12T22:16:57.124Z,100570.99
2018-06-12T22:19:23.963Z,100578.01
2018-06-12T22:21:50.583Z,100579.58
2018-06-12T22:24:17.244Z,100593.84
2018-06-12T22:26:43.856Z,100596.83
2018-06-12T22:29:18.039Z,100592.56
2018-06-12T22:31:44.649Z,100591.86
2018-06-12T22:34:11.278Z,100585.92
2018-06-12T22:36:37.955Z,100588.25
2018-06-12T22:39:06.247Z,100581.06
2018-06-12T22:41:33.780Z,100587.69
2018-06-12T22:44:00.400Z,100586.03
2018-06-12T22:46:27.208Z,100592.30
2018-06-12T22:48:54.184Z,100589.52
2018-06-12T22:51:20.885Z,100586.80
2018-06-12T22:53:47.505Z,100593.19
2018-06-12T22:56:14.184Z,100597.33
2018-06-12T22:58:40.860Z,100594.45
2018-06-12T23:01:07.498Z,100593.50
2018-06-12T23:03:34.116Z,100598.09
2018-06-12T23:06:00.744Z,100593.50
2018-06-12T23:08:28.254Z,100592.51
2018-06-12T23:10:54.888Z,100595.34
2018-06-12T23:13:21.528Z,100592.41
2018-06-12T23:15:48.189Z,100595.41
2018-06-12T23:18:14.919Z,100587.10
2018-06-12T23:20:47.253Z,100586.86
2018-06-12T23:23:13.912Z,100590.23
2018-06-12T23:25:40.536Z,100588.26
2018-06-12T23:28:07.162Z,100592.51
2018-06-12T23:30:33.781Z,100592.23
2018-06-12T23:33:00.433Z,100587.48
2018-06-12T23:35:27.088Z,100585.48
2018-06-12T23:37:54.000Z,100581.50
2018-06-12T23:40:20.653Z,100584.98
2018-06-12T23:42:47.308Z,100585.33
2018-06-12T23:45:13.975Z,100574.42
2018-06-12T23:47:40.597Z,100575.87
2018-06-12T23:50:07.212Z,100575.41
2018-06-12T23:52:33.829Z,100573.32
2018-06-12T23:55:00.500Z,100577.30
2018-06-12T23:57:27.168Z,100570.48
2018-06-12T23:59:53.828Z,100574.86
